Time;durP1;ratioP1;P1;durP2;ratioP2;P2;SDS_P1;SDS_P2;PMS_P1;PMS_P2;Temp;Humidity;BMP_temperature;BMP_pressure;BME280_temperature;BME280_humidity;BME280_pressure;Samples;Min_cycle;Max_cycle;Signal;HPM_P1;HPM_P2
2021/01/29 00:02:10;;;;;;;1.80;1.30;;;11.20;99.90;;;;;;5037990;28;20814;-90
2021/01/29 00:04:43;;;;;;;0.83;0.80;;;11.20;99.90;;;;;;5037929;28;20471;-92
2021/01/29 00:07:11;;;;;;;2.23;0.90;;;11.10;99.90;;;;;;5037941;28;20494;-90
2021/01/29 00:09:40;;;;;;;1.73;1.07;;;11.10;99.90;;;;;;5037175;28;20988;-91
2021/01/29 00:12:09;;;;;;;3.27;1.40;;;11.10;99.90;;;;;;5037684;28;20479;-90
2021/01/29 00:14:36;;;;;;;2.83;1.30;;;11.00;99.90;;;;;;5037615;28;20453;-90
2021/01/29 00:17:05;;;;;;;3.33;1.80;;;10.90;99.90;;;;;;5037675;28;20472;-91
2021/01/29 00:19:34;;;;;;;2.20;1.60;;;10.90;99.90;;;;;;5037171;28;21297;-89
2021/01/29 00:22:01;;;;;;;1.60;1.37;;;10.80;99.90;;;;;;5037555;28;20435;-88
2021/01/29 00:24:28;;;;;;;4.33;2.37;;;10.80;99.90;;;;;;5037326;28;20446;-88
2021/01/29 00:27:00;;;;;;;2.80;1.10;;;10.70;99.90;;;;;;5037200;28;20457;-89
2021/01/29 00:29:26;;;;;;;1.63;1.27;;;10.70;99.90;;;;;;5037617;28;20460;-89
2021/01/29 00:31:53;;;;;;;2.60;1.17;;;10.60;99.90;;;;;;5037182;28;20492;-89
2021/01/29 00:34:19;;;;;;;1.77;1.03;;;10.50;99.90;;;;;;5037180;28;20460;-88
2021/01/29 00:36:50;;;;;;;1.57;1.43;;;10.50;99.90;;;;;;5035250;28;21012;-90
2021/01/29 00:39:18;;;;;;;2.83;1.53;;;10.40;99.90;;;;;;5034552;28;20855;-88
2021/01/29 00:41:45;;;;;;;1.40;1.20;;;10.40;99.90;;;;;;5034458;28;20480;-89
2021/01/29 00:44:13;;;;;;;2.53;1.60;;;10.40;99.90;;;;;;5034766;28;20473;-89
2021/01/29 00:46:39;;;;;;;6.37;1.83;;;10.40;99.90;;;;;;5048266;28;20473;-90
2021/01/29 00:49:10;;;;;;;6.80;2.60;;;10.40;99.90;;;;;;5045150;28;20775;-89
2021/01/29 00:51:44;;;;;;;6.13;2.30;;;10.40;99.90;;;;;;5033753;28;20828;-87
2021/01/29 00:54:10;;;;;;;4.83;2.03;;;10.40;99.90;;;;;;5034129;28;20433;-87
2021/01/29 00:56:36;;;;;;;4.40;1.60;;;10.40;99.90;;;;;;5033930;28;20512;-90
2021/01/29 00:59:03;;;;;;;3.30;1.53;;;10.50;99.90;;;;;;5034106;28;20449;-88
2021/01/29 01:01:29;;;;;;;1.10;1.00;;;10.50;99.90;;;;;;5033625;28;20454;-89
2021/01/29 01:03:56;;;;;;;1.00;0.80;;;10.50;99.90;;;;;;5033654;28;20824;-88
2021/01/29 01:06:24;;;;;;;1.37;1.27;;;10.50;99.90;;;;;;5033711;28;20469;-88
2021/01/29 01:08:53;;;;;;;1.07;0.80;;;10.50;99.90;;;;;;5034028;28;20467;-88
2021/01/29 01:11:20;;;;;;;1.87;0.80;;;10.60;99.90;;;;;;5033605;28;20426;-89
2021/01/29 01:13:46;;;;;;;0.73;0.63;;;10.60;99.90;;;;;;5033936;28;20446;-88
2021/01/29 01:16:13;;;;;;;1.30;1.10;;;10.60;99.90;;;;;;5033468;28;20993;-89
2021/01/29 01:18:39;;;;;;;1.80;1.00;;;10.70;99.90;;;;;;5033542;28;20480;-91
2021/01/29 01:21:06;;;;;;;1.53;0.87;;;10.80;99.90;;;;;;5033636;28;20446;-90
2021/01/29 01:23:35;;;;;;;1.37;0.90;;;10.80;99.90;;;;;;5032892;28;20451;-89
2021/01/29 01:26:02;;;;;;;2.00;1.20;;;10.70;99.90;;;;;;5033270;28;20465;-89
2021/01/29 01:28:31;;;;;;;0.87;0.80;;;10.70;99.90;;;;;;5033688;28;20461;-90
2021/01/29 01:31:10;;;;;;;1.83;0.90;;;10.60;99.90;;;;;;5032434;28;20950;-89
2021/01/29 01:33:57;;;;;;;2.20;1.00;;;10.60;99.90;;;;;;5033254;28;20548;-90
2021/01/29 01:36:29;;;;;;;2.23;1.10;;;10.60;99.90;;;;;;5032869;28;20522;-89
2021/01/29 01:38:59;;;;;;;1.87;1.00;;;10.60;99.90;;;;;;5033422;28;20467;-89
2021/01/29 01:41:29;;;;;;;1.60;1.00;;;10.60;99.90;;;;;;5032807;28;20530;-89
2021/01/29 01:44:13;;;;;;;1.40;1.30;;;10.60;99.90;;;;;;5033312;28;20870;-89
2021/01/29 01:46:43;;;;;;;2.00;0.97;;;10.60;99.90;;;;;;5033098;28;20533;-89
2021/01/29 01:49:14;;;;;;;1.30;1.10;;;10.60;99.90;;;;;;5033040;28;20540;-90
2021/01/29 01:51:55;;;;;;;1.20;0.97;;;10.60;99.90;;;;;;5032656;28;20453;-89
2021/01/29 01:54:33;;;;;;;0.90;0.80;;;10.60;99.90;;;;;;5033258;28;20426;-90
2021/01/29 01:57:14;;;;;;;1.00;0.90;;;10.50;99.90;;;;;;5032814;28;20484;-88
2021/01/29 01:59:56;;;;;;;1.47;1.00;;;10.50;99.90;;;;;;5032921;28;20541;-89
2021/01/29 02:02:29;;;;;;;1.20;1.00;;;10.50;99.90;;;;;;5032803;28;20525;-90
2021/01/29 02:05:03;;;;;;;1.53;0.93;;;10.50;99.90;;;;;;5032993;28;20437;-89
2021/01/29 02:07:48;;;;;;;2.90;0.93;;;10.50;99.90;;;;;;5032420;28;20488;-88
2021/01/29 02:10:15;;;;;;;2.27;1.10;;;10.50;99.90;;;;;;5032560;28;20458;-88
2021/01/29 02:12:41;;;;;;;0.90;0.70;;;10.50;99.90;;;;;;5032202;28;20465;-89
2021/01/29 02:15:17;;;;;;;1.10;0.97;;;10.40;99.90;;;;;;5031976;28;20988;-89
2021/01/29 02:17:58;;;;;;;1.07;0.80;;;10.40;99.90;;;;;;5032546;28;20837;-89
2021/01/29 02:21:07;;;;;;;1.10;1.00;;;10.40;99.90;;;;;;5032392;28;20453;-89
2021/01/29 02:27:27;;;;;;;1.10;1.00;;;10.50;99.90;;;;;;5029610;28;20500;-87
2021/01/29 02:30:20;;;;;;;1.30;0.93;;;10.50;99.90;;;;;;5029640;28;20453;-89
2021/01/29 02:33:36;;;;;;;0.90;0.80;;;10.50;99.90;;;;;;5032783;28;20434;-89
2021/01/29 02:36:52;;;;;;;1.60;0.80;;;10.40;99.90;;;;;;5029792;28;20515;-89
2021/01/29 02:39:46;;;;;;;1.10;0.77;;;10.40;99.90;;;;;;5032429;28;20459;-89
2021/01/29 02:42:40;;;;;;;1.20;0.73;;;10.40;99.90;;;;;;5032128;28;20465;-88
2021/01/29 02:45:22;;;;;;;1.00;0.80;;;10.40;99.90;;;;;;5032544;28;20942;-89
2021/01/29 02:48:02;;;;;;;1.07;0.80;;;10.40;99.90;;;;;;5032009;28;20473;-88
2021/01/29 02:50:48;;;;;;;2.20;0.80;;;10.40;99.90;;;;;;5031867;28;20456;-89
2021/01/29 02:53:32;;;;;;;1.10;0.70;;;10.40;99.90;;;;;;5031659;28;20449;-89
2021/01/29 02:56:12;;;;;;;1.00;0.70;;;10.40;99.90;;;;;;5031982;28;20553;-89
2021/01/29 02:58:58;;;;;;;1.80;0.70;;;10.40;99.90;;;;;;5032139;28;20444;-88
2021/01/29 03:01:31;;;;;;;1.87;0.77;;;10.40;99.90;;;;;;5032062;28;20458;-90
2021/01/29 03:04:08;;;;;;;1.30;0.50;;;10.40;99.90;;;;;;5034654;28;20536;-89
2021/01/29 03:06:46;;;;;;;1.13;0.83;;;10.50;99.90;;;;;;5054997;28;21023;-89
2021/01/29 03:09:17;;;;;;;3.00;0.60;;;10.40;99.90;;;;;;5037695;28;20490;-90
2021/01/29 03:12:02;;;;;;;2.80;0.73;;;10.50;99.90;;;;;;5031727;28;20785;-90
2021/01/29 03:14:35;;;;;;;1.20;0.70;;;10.50;99.90;;;;;;5031953;28;20458;-89
2021/01/29 03:17:16;;;;;;;1.10;0.70;;;10.50;99.90;;;;;;5031688;28;20866;-90
2021/01/29 03:19:50;;;;;;;0.90;0.77;;;10.50;99.90;;;;;;5031598;28;20457;-89
2021/01/29 03:22:22;;;;;;;1.10;0.70;;;10.50;99.90;;;;;;5031400;28;20666;-89
2021/01/29 03:25:01;;;;;;;2.80;0.70;;;10.50;99.90;;;;;;5031403;28;20473;-88
2021/01/29 03:27:35;;;;;;;1.73;0.70;;;10.50;99.90;;;;;;5031232;28;20470;-88
2021/01/29 03:30:10;;;;;;;1.30;0.67;;;10.50;99.90;;;;;;5031225;28;20450;-89
2021/01/29 03:32:39;;;;;;;1.47;0.87;;;10.50;99.90;;;;;;5031484;28;20460;-88
2021/01/29 03:35:13;;;;;;;0.50;0.40;;;10.50;99.90;;;;;;5031353;28;20516;-89
2021/01/29 03:37:45;;;;;;;2.03;0.70;;;10.40;99.90;;;;;;5031205;28;21007;-90
2021/01/29 03:40:19;;;;;;;0.97;0.70;;;10.50;99.90;;;;;;5030934;28;21015;-89
2021/01/29 03:46:06;;;;;;;0.70;0.70;;;10.40;99.90;;;;;;5028421;28;20461;-89
2021/01/29 03:48:53;;;;;;;0.80;0.60;;;10.40;99.90;;;;;;5031483;28;20480;-88
2021/01/29 03:51:28;;;;;;;2.10;0.60;;;10.40;99.90;;;;;;5031222;28;20453;-89
2021/01/29 03:54:09;;;;;;;1.43;0.73;;;10.40;99.90;;;;;;5031135;28;20450;-90
2021/01/29 03:57:09;;;;;;;;;;;;;;;;;;;;;
2021/01/29 04:00:21;;;;;;;1.00;0.80;;;10.50;99.90;;;;;;5031234;28;20438;-90
2021/01/29 04:03:09;;;;;;;1.17;0.50;;;10.40;99.90;;;;;;5030191;28;20446;-90
2021/01/29 04:05:45;;;;;;;1.53;0.70;;;10.40;99.90;;;;;;5030828;28;20539;-89
2021/01/29 04:08:24;;;;;;;1.73;0.60;;;10.30;99.90;;;;;;5031598;28;20469;-90
2021/01/29 04:10:55;;;;;;;1.07;0.70;;;10.20;99.90;;;;;;5031015;28;20448;-90
2021/01/29 04:13:36;;;;;;;1.40;1.00;;;10.20;99.90;;;;;;5034901;28;20429;-89
2021/01/29 04:16:21;;;;;;;0.60;0.50;;;10.10;99.90;;;;;;5034513;28;20523;-90
2021/01/29 04:18:52;;;;;;;1.50;0.70;;;10.10;99.90;;;;;;5034893;28;20821;-89
2021/01/29 04:21:22;;;;;;;0.90;0.80;;;10.10;99.90;;;;;;5034652;28;20456;-88
2021/01/29 04:23:54;;;;;;;1.37;0.70;;;10.10;99.90;;;;;;5034699;28;20429;-89
2021/01/29 04:26:24;;;;;;;1.13;0.73;;;10.10;99.90;;;;;;5034363;28;20469;-88
2021/01/29 04:29:00;;;;;;;3.13;0.80;;;10.20;99.90;;;;;;5015146;28;20462;-89
2021/01/29 04:31:29;;;;;;;1.03;0.60;;;10.10;99.90;;;;;;5014439;28;20463;-88
2021/01/29 04:34:08;;;;;;;1.87;0.80;;;10.10;99.90;;;;;;5015037;28;20507;-89
2021/01/29 04:36:38;;;;;;;1.50;0.80;;;10.10;99.90;;;;;;5031083;28;20513;-88
2021/01/29 04:39:09;;;;;;;0.77;0.57;;;10.10;99.90;;;;;;5034888;28;20437;-89
2021/01/29 04:42:08;;;;;;;1.00;0.80;;;10.10;99.90;;;;;;5034726;28;20434;-88
2021/01/29 04:45:04;;;;;;;0.93;0.70;;;10.10;99.90;;;;;;5026133;28;20487;-90
2021/01/29 04:47:41;;;;;;;1.10;0.87;;;10.10;99.90;;;;;;5034344;28;20866;-89
2021/01/29 04:50:41;;;;;;;1.10;0.60;;;10.10;99.90;;;;;;5035648;28;20477;-89
2021/01/29 04:53:48;;;;;;;0.63;0.50;;;10.10;99.90;;;;;;5034631;28;20461;-89
2021/01/29 04:56:43;;;;;;;0.90;0.50;;;10.20;99.90;;;;;;5034697;28;20455;-88
2021/01/29 04:59:34;;;;;;;2.40;0.83;;;10.20;99.90;;;;;;5035602;28;20957;-90
2021/01/29 05:02:47;;;;;;;1.20;0.87;;;10.20;99.90;;;;;;5029080;28;20543;-89
2021/01/29 05:05:57;;;;;;;1.00;0.50;;;10.20;99.90;;;;;;5033735;28;20441;-89
2021/01/29 05:08:47;;;;;;;0.70;0.60;;;10.10;99.90;;;;;;5034151;28;20961;-89
2021/01/29 05:11:54;;;;;;;1.50;0.80;;;10.10;99.90;;;;;;5034294;28;20548;-89
2021/01/29 05:14:44;;;;;;;1.20;1.00;;;10.10;99.90;;;;;;5034011;28;20445;-90
2021/01/29 05:17:38;;;;;;;4.20;0.80;;;10.20;99.90;;;;;;5033368;28;20490;-90
2021/01/29 05:20:44;;;;;;;2.80;0.80;;;10.20;99.90;;;;;;5034019;28;20895;-90
2021/01/29 05:23:24;;;;;;;1.20;0.73;;;10.20;99.90;;;;;;5032926;28;20479;-90
2021/01/29 05:26:38;;;;;;;0.80;0.53;;;10.20;99.90;;;;;;5034344;28;20469;-89
2021/01/29 05:29:28;;;;;;;0.87;0.80;;;10.20;99.90;;;;;;5041873;28;20448;-89
2021/01/29 05:32:08;;;;;;;1.00;0.60;;;10.20;99.90;;;;;;5051707;28;20446;-89
2021/01/29 05:34:59;;;;;;;3.50;0.80;;;10.00;99.90;;;;;;5033481;28;20539;-88
2021/01/29 05:38:06;;;;;;;3.03;0.80;;;9.90;99.90;;;;;;5033391;28;20833;-89
2021/01/29 05:40:48;;;;;;;0.90;0.70;;;9.80;99.90;;;;;;5033474;28;20453;-88
2021/01/29 05:43:40;;;;;;;1.47;0.70;;;9.80;99.90;;;;;;5033922;28;20869;-88
2021/01/29 05:46:14;;;;;;;0.97;0.70;;;9.70;99.90;;;;;;5033083;28;20453;-88
2021/01/29 05:49:09;;;;;;;3.20;1.50;;;9.70;99.90;;;;;;5032891;28;20858;-88
2021/01/29 05:52:19;;;;;;;1.23;0.60;;;9.70;99.90;;;;;;5032719;28;20544;-88
2021/01/29 05:55:07;;;;;;;0.67;0.40;;;9.60;99.90;;;;;;5033324;28;20507;-88
2021/01/29 05:58:04;;;;;;;0.60;0.50;;;9.60;99.90;;;;;;5032896;28;20481;-89
2021/01/29 06:00:55;;;;;;;0.60;0.30;;;9.50;99.90;;;;;;5032351;28;20487;-89
2021/01/29 06:03:38;;;;;;;2.10;0.47;;;9.50;99.90;;;;;;5032874;28;20575;-89
2021/01/29 06:06:32;;;;;;;1.27;0.40;;;9.50;99.90;;;;;;5032815;28;20500;-89
2021/01/29 06:09:12;;;;;;;2.53;0.53;;;9.50;99.90;;;;;;5032846;28;20461;-90
2021/01/29 06:11:52;;;;;;;0.50;0.30;;;9.60;99.90;;;;;;5032528;28;20489;-92
2021/01/29 06:14:48;;;;;;;1.43;0.43;;;9.60;99.90;;;;;;5032681;28;20465;-89
2021/01/29 06:17:44;;;;;;;2.17;0.77;;;9.70;99.90;;;;;;5032369;28;20484;-90
2021/01/29 06:20:47;;;;;;;0.70;0.50;;;9.70;99.90;;;;;;5032765;28;20453;-90
2021/01/29 06:23:34;;;;;;;2.00;0.93;;;9.70;99.90;;;;;;5032529;28;20507;-90
2021/01/29 06:26:15;;;;;;;0.80;0.60;;;9.60;99.90;;;;;;5032315;28;20465;-89
2021/01/29 06:29:19;;;;;;;4.30;0.70;;;9.60;99.90;;;;;;5031843;28;20844;-89
2021/01/29 06:32:27;;;;;;;0.90;0.50;;;9.60;99.90;;;;;;5032035;28;20476;-89
2021/01/29 06:35:12;;;;;;;0.97;0.70;;;9.60;99.90;;;;;;5031055;28;20441;-88
2021/01/29 06:37:51;;;;;;;1.07;0.77;;;9.50;99.90;;;;;;5031998;28;20488;-89
2021/01/29 06:40:25;;;;;;;0.80;0.70;;;9.60;99.90;;;;;;5032078;28;20449;-88
2021/01/29 06:43:27;;;;;;;1.53;0.70;;;9.50;99.90;;;;;;5032111;28;20918;-88
2021/01/29 06:46:29;;;;;;;0.90;0.77;;;9.50;99.90;;;;;;4990014;28;20463;-88
2021/01/29 06:49:38;;;;;;;0.60;0.53;;;9.50;99.90;;;;;;5018888;28;20453;-88
2021/01/29 06:52:30;;;;;;;1.00;0.63;;;9.60;99.90;;;;;;5032227;28;20879;-89
2021/01/29 06:55:23;;;;;;;1.93;0.80;;;9.60;99.90;;;;;;5031920;28;20781;-89
2021/01/29 06:58:40;;;;;;;2.50;0.97;;;9.60;99.90;;;;;;5031676;28;20496;-89
2021/01/29 07:01:37;;;;;;;0.80;0.57;;;9.60;99.90;;;;;;4954632;28;20988;-90
2021/01/29 07:04:55;;;;;;;2.47;0.70;;;9.60;99.90;;;;;;5026639;28;20494;-89
2021/01/29 07:07:39;;;;;;;0.80;0.50;;;9.60;99.90;;;;;;5031580;28;20472;-89
2021/01/29 07:10:21;;;;;;;0.80;0.50;;;9.60;99.90;;;;;;5031764;28;20441;-88
2021/01/29 07:13:00;;;;;;;0.80;0.50;;;9.60;99.90;;;;;;5031677;28;20445;-89
2021/01/29 07:15:40;;;;;;;1.27;0.40;;;9.60;99.90;;;;;;5031530;28;20441;-89
2021/01/29 07:18:35;;;;;;;1.40;0.57;;;9.60;99.90;;;;;;5031500;28;20491;-88
2021/01/29 07:21:21;;;;;;;0.97;0.80;;;9.60;99.90;;;;;;5026742;28;20459;-88
2021/01/29 07:24:12;;;;;;;0.67;0.50;;;9.60;99.90;;;;;;5031154;28;20441;-89
2021/01/29 07:26:59;;;;;;;1.83;1.13;;;9.70;99.90;;;;;;5031419;28;20466;-89
2021/01/29 07:29:46;;;;;;;0.60;0.50;;;9.80;99.90;;;;;;5031396;28;20434;-89
2021/01/29 07:32:21;;;;;;;0.70;0.40;;;9.90;99.90;;;;;;5031481;28;20452;-90
2021/01/29 07:34:56;;;;;;;0.77;0.50;;;10.00;99.90;;;;;;5031258;28;20480;-90
2021/01/29 07:37:46;;;;;;;1.13;0.67;;;10.00;99.90;;;;;;5031039;28;20997;-89
2021/01/29 07:40:40;;;;;;;0.60;0.37;;;10.00;99.90;;;;;;5011256;28;20445;-89
2021/01/29 07:43:24;;;;;;;0.60;0.40;;;10.20;99.90;;;;;;5031353;28;20511;-89
2021/01/29 07:46:13;;;;;;;1.33;0.47;;;10.20;99.90;;;;;;5031526;28;20465;-89
2021/01/29 07:48:59;;;;;;;0.80;0.50;;;10.20;99.90;;;;;;5036185;28;20425;-90
2021/01/29 07:51:36;;;;;;;1.07;0.70;;;10.30;99.90;;;;;;5035270;28;20505;-89
2021/01/29 07:54:54;;;;;;;0.90;0.80;;;10.40;99.90;;;;;;5055742;28;20444;-89
2021/01/29 07:57:53;;;;;;;0.60;0.40;;;10.40;99.90;;;;;;4995517;28;20544;-89
2021/01/29 08:00:35;;;;;;;0.77;0.50;;;10.50;99.90;;;;;;4960921;28;20462;-89
2021/01/29 08:03:31;;;;;;;0.93;0.70;;;10.60;99.90;;;;;;5014067;28;20445;-90
2021/01/29 08:06:03;;;;;;;0.70;0.50;;;10.70;99.90;;;;;;5034768;28;20465;-89
2021/01/29 08:08:37;;;;;;;0.80;0.50;;;10.80;99.90;;;;;;5036228;28;20474;-89
2021/01/29 08:11:08;;;;;;;2.50;0.70;;;10.80;99.90;;;;;;5034583;28;20458;-88
2021/01/29 08:13:48;;;;;;;0.73;0.60;;;10.90;99.90;;;;;;5034602;28;20453;-88
2021/01/29 08:16:50;;;;;;;2.10;0.80;;;11.00;99.90;;;;;;5034979;28;20469;-89
2021/01/29 08:19:23;;;;;;;5.60;3.67;;;11.10;99.90;;;;;;5034943;28;20894;-87
2021/01/29 08:22:16;;;;;;;0.80;0.60;;;11.20;99.90;;;;;;5034594;28;20472;-80
2021/01/29 08:25:00;;;;;;;2.90;1.00;;;11.20;99.90;;;;;;5034587;28;20449;-82
2021/01/29 08:28:05;;;;;;;0.83;0.60;;;11.20;99.90;;;;;;5032049;28;20465;-81
2021/01/29 08:31:20;;;;;;;1.43;0.70;;;11.30;99.90;;;;;;5035906;28;20987;-91
2021/01/29 08:34:11;;;;;;;1.37;0.50;;;11.40;99.90;;;;;;5003807;28;20492;-90
2021/01/29 08:37:06;;;;;;;1.43;0.60;;;11.40;99.90;;;;;;5034543;28;20469;-90
2021/01/29 08:39:40;;;;;;;0.80;0.40;;;11.40;99.90;;;;;;5014897;28;20454;-90
2021/01/29 08:42:18;;;;;;;2.37;0.67;;;11.50;99.90;;;;;;5015224;28;20492;-88
2021/01/29 08:45:10;;;;;;;0.80;0.53;;;11.60;99.90;;;;;;5014683;28;20463;-90
2021/01/29 08:47:54;;;;;;;3.10;0.90;;;11.60;99.90;;;;;;5023293;28;20520;-90
2021/01/29 08:50:37;;;;;;;0.70;0.50;;;11.50;99.90;;;;;;5034552;28;20442;-90
2021/01/29 08:53:39;;;;;;;1.00;0.70;;;11.40;99.90;;;;;;5023384;28;20457;-90
2021/01/29 08:56:12;;;;;;;1.20;0.70;;;11.30;99.90;;;;;;5034467;28;20462;-90
2021/01/29 08:58:45;;;;;;;1.43;0.50;;;11.40;99.90;;;;;;5033327;28;20469;-90
2021/01/29 09:01:21;;;;;;;1.20;0.53;;;11.60;99.90;;;;;;5034243;28;20792;-89
2021/01/29 09:03:57;;;;;;;1.10;0.60;;;11.50;99.90;;;;;;5036554;28;20434;-88
2021/01/29 09:06:39;;;;;;;0.80;0.50;;;11.60;99.90;;;;;;5044034;28;21033;-88
2021/01/29 09:09:08;;;;;;;4.00;0.70;;;11.70;99.90;;;;;;5043373;28;20458;-90
2021/01/29 09:11:41;;;;;;;2.10;1.07;;;12.00;99.90;;;;;;5038030;28;20444;-88
2021/01/29 09:14:15;;;;;;;1.10;0.60;;;12.30;99.90;;;;;;5043003;28;20438;-91
2021/01/29 09:16:43;;;;;;;1.40;0.80;;;12.10;99.90;;;;;;5031654;28;20451;-90
2021/01/29 09:19:15;;;;;;;1.37;0.90;;;12.00;99.90;;;;;;5041247;28;20442;-89
2021/01/29 09:21:58;;;;;;;2.17;1.50;;;11.90;99.90;;;;;;5048183;28;20448;-90
2021/01/29 09:24:37;;;;;;;0.70;0.53;;;12.00;99.90;;;;;;5043645;28;20866;-88
2021/01/29 09:27:27;;;;;;;0.80;0.60;;;12.10;99.90;;;;;;5035346;28;20462;-89
2021/01/29 09:29:57;;;;;;;1.60;0.80;;;12.40;99.90;;;;;;5031562;28;20528;-89
2021/01/29 09:32:50;;;;;;;1.93;1.10;;;13.00;99.90;;;;;;5033504;28;20456;-90
2021/01/29 09:35:24;;;;;;;1.67;0.67;;;14.00;99.90;;;;;;5029029;28;20437;-90
2021/01/29 09:37:54;;;;;;;2.20;0.70;;;14.30;99.90;;;;;;5031795;28;20481;-89
2021/01/29 09:40:25;;;;;;;1.33;0.77;;;14.50;99.80;;;;;;5037445;28;20508;-90
2021/01/29 09:43:08;;;;;;;1.50;0.67;;;14.50;99.10;;;;;;5038072;28;20437;-90
2021/01/29 09:45:38;;;;;;;1.83;0.70;;;14.20;98.90;;;;;;5032964;28;20789;-90
2021/01/29 09:48:07;;;;;;;2.37;1.00;;;14.30;98.50;;;;;;5037196;28;20537;-90
2021/01/29 09:50:33;;;;;;;2.00;0.80;;;14.20;98.80;;;;;;5029976;28;20479;-89
2021/01/29 09:53:25;;;;;;;2.80;0.90;;;13.80;98.50;;;;;;5032996;28;20444;-90
2021/01/29 09:56:03;;;;;;;1.63;0.80;;;13.60;98.80;;;;;;5027857;28;20499;-90
2021/01/29 09:58:57;;;;;;;4.53;1.90;;;13.60;99.00;;;;;;5027645;28;20509;-93
2021/01/29 10:01:25;;;;;;;3.37;0.90;;;13.60;99.20;;;;;;5028286;28;20421;-90
2021/01/29 10:03:57;;;;;;;2.50;1.00;;;13.80;99.00;;;;;;5030545;28;20445;-91
2021/01/29 10:06:29;;;;;;;2.80;1.30;;;14.00;98.30;;;;;;5028732;28;20530;-90
2021/01/29 10:08:59;;;;;;;5.63;1.53;;;14.00;97.10;;;;;;5032184;28;20430;-90
2021/01/29 10:11:32;;;;;;;3.07;1.50;;;14.00;97.10;;;;;;5035017;28;20453;-91
2021/01/29 10:14:30;;;;;;;7.50;2.17;;;14.40;96.40;;;;;;5020192;28;20446;-89
2021/01/29 10:17:01;;;;;;;5.00;1.70;;;14.70;95.70;;;;;;5049304;28;20519;-90
2021/01/29 10:19:39;;;;;;;4.70;2.40;;;14.90;95.20;;;;;;5030428;28;20459;-90
2021/01/29 10:22:54;;;;;;;4.73;2.20;;;14.80;94.80;;;;;;5024457;28;20474;-90
2021/01/29 10:25:39;;;;;;;4.87;1.90;;;15.30;94.10;;;;;;5031013;28;20449;-90
2021/01/29 10:28:12;;;;;;;4.40;1.53;;;15.90;93.50;;;;;;5035078;28;20468;-92
2021/01/29 10:30:46;;;;;;;4.80;1.60;;;15.30;92.60;;;;;;5034362;28;20478;-92
2021/01/29 10:33:19;;;;;;;4.00;1.07;;;15.10;92.90;;;;;;5030533;28;20516;-88
2021/01/29 10:35:55;;;;;;;6.63;1.60;;;15.10;91.90;;;;;;5027463;28;20443;-90
2021/01/29 10:38:30;;;;;;;4.37;2.10;;;15.30;92.10;;;;;;5029237;28;21005;-89
2021/01/29 10:41:06;;;;;;;5.27;1.73;;;16.30;91.60;;;;;;5027570;28;20437;-89
2021/01/29 10:43:42;;;;;;;3.93;1.40;;;16.60;88.40;;;;;;5021701;28;21152;-90
2021/01/29 10:46:45;;;;;;;2.70;1.57;;;17.10;89.90;;;;;;5026473;28;20473;-89
2021/01/29 10:49:17;;;;;;;4.33;2.20;;;18.10;87.20;;;;;;5028154;28;20451;-90
2021/01/29 10:51:51;;;;;;;3.63;2.17;;;20.20;82.50;;;;;;5025518;28;20452;-88
2021/01/29 10:54:18;;;;;;;2.77;1.43;;;20.80;75.20;;;;;;5030986;28;20803;-89
2021/01/29 10:56:59;;;;;;;3.40;1.60;;;20.90;73.70;;;;;;5031241;28;20471;-90
2021/01/29 10:59:35;;;;;;;7.67;2.07;;;21.40;72.40;;;;;;5029068;28;20442;-90
2021/01/29 11:02:06;;;;;;;6.63;2.90;;;20.90;69.80;;;;;;5028957;28;20498;-89
2021/01/29 11:04:37;;;;;;;3.90;1.73;;;20.80;71.10;;;;;;5031292;28;20480;-88
2021/01/29 11:07:08;;;;;;;4.37;2.20;;;20.90;69.60;;;;;;5031607;28;20987;-90
2021/01/29 11:09:36;;;;;;;2.60;1.33;;;21.10;68.20;;;;;;5030353;28;20454;-90
2021/01/29 11:12:17;;;;;;;3.80;1.20;;;20.60;69.60;;;;;;5028867;28;20454;-89
2021/01/29 11:14:52;;;;;;;2.50;1.40;;;20.00;70.80;;;;;;5025230;28;20439;-90
2021/01/29 11:17:29;;;;;;;4.10;1.83;;;20.10;72.80;;;;;;5027454;28;20487;-86
2021/01/29 11:19:58;;;;;;;3.73;1.40;;;21.40;70.20;;;;;;5027409;28;20809;-91
2021/01/29 11:22:34;;;;;;;7.03;1.87;;;20.20;69.40;;;;;;5028591;28;20449;-92
2021/01/29 11:25:25;;;;;;;3.33;1.67;;;19.20;72.80;;;;;;5026989;28;20491;-90
2021/01/29 11:27:59;;;;;;;4.40;1.50;;;20.10;74.60;;;;;;5026724;28;20477;-88
2021/01/29 11:30:32;;;;;;;3.03;1.37;;;20.80;69.40;;;;;;5031304;28;20451;-86
2021/01/29 11:33:01;;;;;;;3.03;1.90;;;20.80;70.00;;;;;;5025863;28;20450;-87
2021/01/29 11:35:42;;;;;;;4.83;1.90;;;19.70;71.00;;;;;;5025319;28;20940;-88
2021/01/29 11:38:37;;;;;;;4.27;2.57;;;17.90;74.10;;;;;;5026540;28;20481;-87
2021/01/29 11:41:30;;;;;;;;;;;;;;;;;;;;;
2021/01/29 11:44:17;;;;;;;8.20;4.23;;;16.20;81.70;;;;;;5029164;28;20935;-89
2021/01/29 11:46:51;;;;;;;3.30;1.47;;;16.00;83.20;;;;;;5026583;28;20465;-90
2021/01/29 11:49:26;;;;;;;6.90;1.90;;;15.00;84.30;;;;;;5027808;28;20504;-90
2021/01/29 11:52:11;;;;;;;4.47;1.90;;;14.40;86.50;;;;;;5030916;28;20475;-89
2021/01/29 11:54:46;;;;;;;3.67;2.10;;;14.20;88.50;;;;;;5027610;28;20818;-90
2021/01/29 11:57:18;;;;;;;3.40;2.07;;;14.30;89.50;;;;;;5027568;28;20507;-91
2021/01/29 11:59:52;;;;;;;3.50;1.30;;;14.70;89.90;;;;;;5024721;28;20509;-90
2021/01/29 12:02:29;;;;;;;6.53;2.90;;;15.80;87.60;;;;;;5027149;28;21167;-89
2021/01/29 12:05:14;;;;;;;4.33;1.50;;;15.70;84.60;;;;;;5030412;28;20770;-90
2021/01/29 12:07:45;;;;;;;6.77;2.27;;;15.20;86.70;;;;;;5028173;28;20547;-90
2021/01/29 12:10:19;;;;;;;3.53;1.70;;;16.10;87.50;;;;;;5026803;28;20506;-90
2021/01/29 12:12:52;;;;;;;3.57;1.33;;;17.60;82.20;;;;;;5026982;28;20440;-90
2021/01/29 12:15:26;;;;;;;4.47;2.23;;;17.90;77.40;;;;;;5030427;28;20446;-91
2021/01/29 12:17:55;;;;;;;4.97;2.60;;;17.80;80.00;;;;;;5030525;28;20488;-89
2021/01/29 12:20:27;;;;;;;8.73;2.40;;;17.60;78.70;;;;;;5030499;28;20462;-90
2021/01/29 12:23:08;;;;;;;3.50;2.33;;;16.90;77.70;;;;;;5030247;28;20445;-90
2021/01/29 12:26:01;;;;;;;5.03;2.43;;;16.20;80.90;;;;;;5028135;28;20448;-89
2021/01/29 12:28:55;;;;;;;8.60;1.97;;;15.50;81.90;;;;;;5029407;28;20443;-89
2021/01/29 12:31:31;;;;;;;3.60;1.67;;;15.10;83.00;;;;;;5021956;28;20850;-90
2021/01/29 12:34:03;;;;;;;3.60;1.10;;;14.70;83.10;;;;;;5030009;28;20498;-90
2021/01/29 12:36:35;;;;;;;3.40;1.30;;;14.70;84.30;;;;;;5027258;28;20482;-89
2021/01/29 12:39:11;;;;;;;5.27;1.60;;;14.70;85.30;;;;;;5040275;28;20499;-90
2021/01/29 12:41:51;;;;;;;5.07;1.73;;;14.50;85.10;;;;;;5049686;28;20430;-90
2021/01/29 12:44:42;;;;;;;9.20;2.70;;;14.30;86.80;;;;;;5029628;28;20949;-91
2021/01/29 12:47:23;;;;;;;6.83;2.70;;;14.10;87.30;;;;;;5029430;28;20464;-91
2021/01/29 12:49:59;;;;;;;4.43;2.10;;;14.10;88.40;;;;;;5027141;28;20437;-90
2021/01/29 12:52:38;;;;;;;5.30;1.47;;;13.80;88.50;;;;;;5025516;28;20650;-90
2021/01/29 12:55:13;;;;;;;4.00;2.10;;;13.70;89.70;;;;;;5031162;28;20443;-91
2021/01/29 12:57:39;;;;;;;5.67;3.70;;;13.60;90.50;;;;;;5025751;28;20534;-89
2021/01/29 13:00:18;;;;;;;8.33;4.77;;;13.50;90.80;;;;;;5023312;28;20446;-90
2021/01/29 13:03:13;;;;;;;3.47;1.77;;;13.50;91.20;;;;;;5028804;28;20458;-90
2021/01/29 13:06:12;;;;;;;6.47;2.17;;;13.40;91.40;;;;;;5023994;28;20518;-90
2021/01/29 13:09:25;;;;;;;5.63;2.17;;;13.30;92.20;;;;;;5027353;28;20910;-90
2021/01/29 13:12:03;;;;;;;10.50;2.23;;;13.40;92.30;;;;;;5017601;28;20795;-90
2021/01/29 13:14:38;;;;;;;3.47;0.97;;;13.50;91.90;;;;;;5014115;28;20470;-90
2021/01/29 13:17:25;;;;;;;6.60;2.67;;;13.40;91.20;;;;;;5023525;28;20827;-91
2021/01/29 13:20:04;;;;;;;11.30;3.40;;;13.50;92.00;;;;;;5033494;28;20464;-90
2021/01/29 13:22:36;;;;;;;5.70;3.67;;;13.50;92.00;;;;;;5028796;28;20453;-91
2021/01/29 13:25:16;;;;;;;4.30;1.83;;;13.60;92.20;;;;;;5014237;28;20477;-91
2021/01/29 13:27:48;;;;;;;4.10;1.53;;;13.90;92.40;;;;;;5029008;28;20550;-89
2021/01/29 13:30:28;;;;;;;3.57;1.33;;;13.90;91.90;;;;;;5017758;28;20446;-90
2021/01/29 13:32:58;;;;;;;4.33;3.37;;;13.80;92.00;;;;;;5034663;28;20547;-91
2021/01/29 13:35:29;;;;;;;3.57;1.00;;;13.50;92.30;;;;;;5030281;28;20449;-90
2021/01/29 13:38:11;;;;;;;6.20;2.13;;;13.40;92.50;;;;;;5026454;28;20504;-89
2021/01/29 13:40:39;;;;;;;1.10;0.60;;;13.60;93.30;;;;;;5033161;28;21031;-89
2021/01/29 13:43:18;;;;;;;3.00;1.50;;;13.30;92.50;;;;;;5033640;28;20460;-90
2021/01/29 13:45:46;;;;;;;2.30;0.77;;;13.00;93.50;;;;;;5033483;28;20480;-90
2021/01/29 13:48:24;;;;;;;1.10;0.80;;;12.90;93.70;;;;;;5034092;28;20441;-90
2021/01/29 13:50:54;;;;;;;0.73;0.70;;;13.30;93.80;;;;;;5033197;28;20954;-88
2021/01/29 13:53:38;;;;;;;1.67;0.70;;;13.80;92.60;;;;;;5033340;28;20511;-90
2021/01/29 13:56:21;;;;;;;2.93;1.00;;;13.70;93.30;;;;;;5032977;28;20531;-89
2021/01/29 13:58:53;;;;;;;1.53;0.60;;;13.90;92.40;;;;;;5033285;28;20483;-90
2021/01/29 14:01:24;;;;;;;5.67;1.20;;;14.40;91.90;;;;;;5033509;28;20457;-91
2021/01/29 14:03:56;;;;;;;3.90;1.70;;;14.80;91.90;;;;;;5033097;28;20540;-88
2021/01/29 14:06:33;;;;;;;1.97;1.13;;;14.90;91.70;;;;;;5032294;28;20570;-89
2021/01/29 14:09:00;;;;;;;2.77;1.37;;;14.00;91.70;;;;;;5033180;28;20436;-89